Mineral Wells, West Virginia
Current Conditions -  °F | °C
As of 8:53 AM on Friday 28 Nov 2014 (Local Time) from KPKB Reporting Station
Clear Clear  
Wind Chill: 19°   Ceiling: Unl
Heat Index: 27°   Visibility: 10mi
Dew Point: 18°   Wind: 8mph
Humidity: 69%   Direction: 270°W
Pressure: 30.41"   Gusts: NA
Location:  39.21°N, 81.54°W
Report Text: KPKB 281353Z 27007KT 10SM CLR M03/M08 A3041 RMK AO2 SLP308 T10281078
Loading
Personal Weather Stations






























Interactive Weather Map New forecast layout! Learn more

10-Day Weather Forecast

Advertisements
Track Severe Weather on mobile